Time;durP1;ratioP1;P1;durP2;ratioP2;P2;SDS_P1;SDS_P2;PMS_P1;PMS_P2;Temp;Humidity;BMP_temperature;BMP_pressure;BME280_temperature;BME280_humidity;BME280_pressure;Samples;Min_cycle;Max_cycle;Signal;HPM_P1;HPM_P2
2021/07/25 13:09:13;;;;;;;4.00;2.08;;;30.00;76.40;;;;;;5127173;27;20367;-49
2021/07/25 13:11:42;;;;;;;4.15;2.00;;;30.10;79.10;;;;;;5089151;28;20476;-48
2021/07/25 13:14:13;;;;;;;4.00;2.50;;;30.40;76.30;;;;;;5089076;28;20028;-51
2021/07/25 13:16:44;;;;;;;4.13;2.47;;;30.20;76.70;;;;;;5107923;28;20097;-47
2021/07/25 13:19:11;;;;;;;4.30;2.20;;;30.30;75.40;;;;;;5088732;28;20377;-47
2021/07/25 13:21:38;;;;;;;6.00;2.65;;;30.40;75.30;;;;;;5087955;28;20016;-49
2021/07/25 13:24:04;;;;;;;4.95;3.13;;;30.50;76.10;;;;;;5089276;28;20135;-49
2021/07/25 13:26:30;;;;;;;3.97;2.03;;;30.60;74.80;;;;;;5106735;28;20108;-48
2021/07/25 13:28:57;;;;;;;3.30;2.00;;;31.30;75.10;;;;;;5071497;28;20412;-47
2021/07/25 13:31:24;;;;;;;4.32;2.45;;;31.00;72.00;;;;;;5088173;28;20032;-48
2021/07/25 13:33:51;;;;;;;2.75;2.00;;;30.50;74.60;;;;;;5088594;28;20031;-48
2021/07/25 13:36:18;;;;;;;3.25;2.22;;;30.20;75.20;;;;;;5087914;28;20113;-49
2021/07/25 13:38:46;;;;;;;2.40;2.13;;;30.20;75.40;;;;;;5088374;28;20035;-48
2021/07/25 13:41:14;;;;;;;3.00;1.90;;;30.30;75.00;;;;;;5088729;28;20027;-60
2021/07/25 13:43:49;;;;;;;4.78;1.98;;;30.10;73.80;;;;;;5088082;28;20024;-52
2021/07/25 13:46:40;;;;;;;4.32;2.20;;;29.80;73.70;;;;;;5105008;28;20034;-52
2021/07/25 13:49:10;;;;;;;3.28;2.22;;;30.10;72.70;;;;;;5087720;28;20028;-48
2021/07/25 13:51:35;;;;;;;3.08;1.77;;;30.30;73.40;;;;;;5087459;28;20060;-49
2021/07/25 13:54:04;;;;;;;3.67;2.30;;;30.40;73.90;;;;;;5087436;28;20019;-48
2021/07/25 13:56:30;;;;;;;2.90;2.05;;;30.40;74.30;;;;;;5106333;28;20032;-49
2021/07/25 13:58:57;;;;;;;4.18;2.05;;;30.60;73.00;;;;;;5088455;28;20117;-48
2021/07/25 14:01:23;;;;;;;3.22;1.95;;;30.60;71.70;;;;;;5087320;28;20111;-47
2021/07/25 14:03:49;;;;;;;2.47;2.28;;;30.40;72.30;;;;;;5087600;28;20012;-47
2021/07/25 14:06:16;;;;;;;2.33;1.95;;;30.40;73.20;;;;;;5087492;28;20061;-58
2021/07/25 14:08:42;;;;;;;2.85;2.50;;;30.70;72.50;;;;;;5089025;28;20056;-47
2021/07/25 14:11:12;;;;;;;2.13;1.90;;;30.60;73.30;;;;;;5068813;28;20590;-47
2021/07/25 14:13:39;;;;;;;2.83;2.03;;;30.70;71.60;;;;;;5067966;28;20115;-54
2021/07/25 14:16:05;;;;;;;4.28;2.22;;;30.70;72.30;;;;;;5068190;28;20423;-48
2021/07/25 14:18:32;;;;;;;5.50;2.30;;;30.90;71.90;;;;;;5082667;28;20029;-47
2021/07/25 14:20:58;;;;;;;2.30;2.10;;;31.20;71.60;;;;;;5054328;28;20376;-47
2021/07/25 14:23:24;;;;;;;3.80;2.17;;;30.70;70.30;;;;;;5053964;28;20056;-47
2021/07/25 14:25:50;;;;;;;2.25;1.90;;;30.20;71.10;;;;;;5053466;28;20021;-48
2021/07/25 14:28:16;;;;;;;3.83;1.85;;;29.70;70.50;;;;;;5051550;28;20033;-49
2021/07/25 14:30:42;;;;;;;1.90;1.80;;;29.30;71.80;;;;;;5071383;28;20029;-47
2021/07/25 14:33:09;;;;;;;5.95;2.60;;;29.30;73.20;;;;;;5071399;28;20060;-48
2021/07/25 14:35:35;;;;;;;2.88;2.50;;;29.10;73.60;;;;;;5052378;28;20724;-47
2021/07/25 14:38:02;;;;;;;3.85;2.40;;;29.00;74.20;;;;;;5069624;28;20127;-47
2021/07/25 14:40:28;;;;;;;2.85;2.28;;;28.90;74.10;;;;;;5051626;28;20059;-47
2021/07/25 14:42:54;;;;;;;2.47;2.05;;;28.80;74.50;;;;;;5054416;28;20047;-47
2021/07/25 14:45:19;;;;;;;4.30;2.42;;;28.70;74.40;;;;;;5036700;28;20054;-48
2021/07/25 14:47:45;;;;;;;5.03;2.28;;;28.70;72.30;;;;;;5052168;28;20041;-57
2021/07/25 14:50:11;;;;;;;2.50;1.98;;;28.90;73.00;;;;;;5049848;28;20474;-52
2021/07/25 14:52:38;;;;;;;4.05;2.40;;;29.00;72.20;;;;;;5052443;28;20058;-47
2021/07/25 14:55:05;;;;;;;5.88;2.97;;;29.10;72.10;;;;;;5053807;28;20497;-49
2021/07/25 14:57:31;;;;;;;7.10;2.88;;;29.10;71.50;;;;;;5052696;28;20028;-46
2021/07/25 14:59:57;;;;;;;4.97;2.53;;;29.20;71.30;;;;;;5052708;28;20099;-47
2021/07/25 15:02:23;;;;;;;5.05;2.35;;;29.20;72.30;;;;;;5070534;28;20028;-47
2021/07/25 15:04:49;;;;;;;2.42;2.17;;;29.30;72.10;;;;;;5052590;28;20024;-46
2021/07/25 15:07:15;;;;;;;2.83;2.53;;;29.40;71.50;;;;;;5075161;28;20206;-55
2021/07/25 15:09:41;;;;;;;2.80;2.15;;;29.30;73.20;;;;;;5070627;28;20020;-48
2021/07/25 15:12:07;;;;;;;4.13;3.80;;;29.20;72.30;;;;;;5072440;28;20024;-47
2021/07/25 15:14:33;;;;;;;2.80;2.33;;;29.00;70.80;;;;;;5072079;28;20167;-47
2021/07/25 15:16:59;;;;;;;2.42;2.20;;;29.20;71.40;;;;;;5073087;28;20486;-48
2021/07/25 15:19:26;;;;;;;5.35;2.40;;;29.40;71.10;;;;;;5072397;28;20024;-49
2021/07/25 15:21:51;;;;;;;4.18;2.17;;;29.40;71.20;;;;;;5056387;28;20373;-48
2021/07/25 15:24:17;;;;;;;4.13;2.45;;;29.60;71.50;;;;;;5068794;28;20033;-57
2021/07/25 15:26:45;;;;;;;2.28;2.05;;;29.50;75.40;;;;;;5079622;28;20039;-47
2021/07/25 15:29:10;;;;;;;3.30;2.20;;;29.50;72.00;;;;;;5090723;28;20085;-48
2021/07/25 15:31:38;;;;;;;4.00;1.88;;;29.60;72.00;;;;;;5070622;28;20250;-51
2021/07/25 15:34:04;;;;;;;2.65;2.25;;;29.40;71.00;;;;;;5090662;28;20057;-48
2021/07/25 15:36:33;;;;;;;2.88;2.47;;;29.20;71.70;;;;;;5089678;28;20109;-48
2021/07/25 15:38:58;;;;;;;3.25;2.63;;;28.90;74.70;;;;;;5073041;28;20047;-47
2021/07/25 15:41:24;;;;;;;4.68;2.28;;;28.90;74.10;;;;;;5071338;28;20032;-49
2021/07/25 15:43:50;;;;;;;12.63;3.30;;;29.00;74.20;;;;;;5072329;28;20064;-49
2021/07/25 15:46:21;;;;;;;6.20;2.13;;;29.40;74.20;;;;;;5090063;28;20036;-56
2021/07/25 15:48:47;;;;;;;2.53;2.33;;;29.40;75.80;;;;;;5071919;28;20044;-50
2021/07/25 15:51:13;;;;;;;3.03;2.22;;;29.00;75.00;;;;;;5090343;28;20019;-48
2021/07/25 15:53:40;;;;;;;2.88;2.28;;;29.20;72.30;;;;;;5089795;28;20032;-48
2021/07/25 15:56:06;;;;;;;6.75;2.45;;;29.30;72.20;;;;;;5072196;28;20036;-48
2021/07/25 15:58:32;;;;;;;3.50;2.38;;;29.20;72.50;;;;;;5071379;28;20036;-49
2021/07/25 16:00:58;;;;;;;2.70;2.20;;;29.00;72.50;;;;;;5090748;28;20077;-47
2021/07/25 16:03:23;;;;;;;2.35;1.95;;;29.00;71.80;;;;;;5071202;28;20044;-48
2021/07/25 16:05:49;;;;;;;4.88;2.45;;;28.90;74.70;;;;;;5072192;28;20038;-53
2021/07/25 16:08:15;;;;;;;3.65;2.63;;;28.50;74.50;;;;;;5075515;28;20082;-55
2021/07/25 16:10:40;;;;;;;5.32;2.33;;;28.70;73.00;;;;;;5069197;28;20039;-50
2021/07/25 16:13:06;;;;;;;4.47;2.53;;;28.30;74.60;;;;;;5069482;28;20046;-47
2021/07/25 16:15:33;;;;;;;3.58;2.65;;;28.20;75.30;;;;;;5068336;28;20442;-47
2021/07/25 16:17:59;;;;;;;2.67;1.92;;;28.20;75.90;;;;;;5068961;28;20115;-48
2021/07/25 16:20:24;;;;;;;2.90;2.45;;;28.00;74.40;;;;;;5062520;28;20521;-48
2021/07/25 16:22:50;;;;;;;2.50;2.30;;;28.20;73.80;;;;;;5049457;28;20033;-48
2021/07/25 16:25:17;;;;;;;4.00;2.13;;;28.00;74.90;;;;;;5040268;28;20028;-57
2021/07/25 16:27:43;;;;;;;2.55;2.35;;;28.00;74.10;;;;;;5047558;28;20029;-48
2021/07/25 16:30:09;;;;;;;2.85;2.22;;;28.00;73.80;;;;;;5049820;28;20031;-47
2021/07/25 16:32:37;;;;;;;2.60;2.15;;;27.80;74.00;;;;;;5050218;28;20124;-48
2021/07/25 16:35:04;;;;;;;3.75;2.30;;;27.80;74.20;;;;;;5068604;28;20024;-52
2021/07/25 16:37:31;;;;;;;3.75;2.42;;;27.70;74.70;;;;;;5068083;28;20123;-50
2021/07/25 16:39:57;;;;;;;4.07;2.25;;;27.70;74.20;;;;;;5068634;28;20028;-48
2021/07/25 16:42:22;;;;;;;4.47;2.47;;;27.70;74.40;;;;;;5067696;28;20044;-46
2021/07/25 16:44:50;;;;;;;3.47;3.13;;;27.70;74.60;;;;;;5050187;28;20488;-46
2021/07/25 16:47:17;;;;;;;2.20;1.95;;;27.50;74.80;;;;;;5067409;28;20107;-57
2021/07/25 16:49:44;;;;;;;4.70;2.20;;;27.30;75.20;;;;;;5049699;28;20032;-47
2021/07/25 16:52:09;;;;;;;4.20;2.60;;;27.20;75.30;;;;;;5049983;28;20044;-50
2021/07/25 16:54:35;;;;;;;4.00;2.28;;;27.30;76.00;;;;;;5015837;28;20024;-49
2021/07/25 16:57:02;;;;;;;3.15;2.85;;;27.40;75.30;;;;;;5050039;28;20080;-46
2021/07/25 16:59:28;;;;;;;2.90;2.58;;;27.30;76.20;;;;;;5066718;28;20032;-47
2021/07/25 17:01:53;;;;;;;4.00;2.85;;;27.30;76.10;;;;;;5044842;28;20569;-52
2021/07/25 17:04:19;;;;;;;4.88;2.80;;;27.30;75.40;;;;;;5045867;28;20032;-48
2021/07/25 17:06:45;;;;;;;5.78;3.05;;;27.20;77.30;;;;;;5067589;28;20036;-51
2021/07/25 17:09:10;;;;;;;3.72;3.03;;;27.20;77.80;;;;;;5034701;28;20477;-49
2021/07/25 17:11:36;;;;;;;3.75;2.45;;;27.20;76.20;;;;;;5070147;28;20385;-48
2021/07/25 17:14:03;;;;;;;2.53;2.20;;;27.20;76.50;;;;;;5070500;28;20044;-46
2021/07/25 17:16:30;;;;;;;4.55;2.40;;;27.20;76.40;;;;;;5068465;28;20115;-46
2021/07/25 17:18:56;;;;;;;3.90;2.13;;;27.20;76.10;;;;;;5050710;28;20120;-49
2021/07/25 17:21:23;;;;;;;4.65;2.15;;;27.00;77.00;;;;;;5068129;28;20047;-47
2021/07/25 17:23:49;;;;;;;2.78;2.38;;;27.10;75.10;;;;;;5050922;28;20348;-50
2021/07/25 17:26:15;;;;;;;5.32;2.40;;;27.10;79.50;;;;;;5068948;28;20017;-56
2021/07/25 17:28:40;;;;;;;6.97;2.80;;;27.00;80.00;;;;;;5064665;28;20388;-49
2021/07/25 17:31:06;;;;;;;2.85;2.35;;;26.80;81.50;;;;;;5065965;28;20346;-51
2021/07/25 17:33:37;;;;;;;5.15;2.47;;;26.70;83.30;;;;;;5067016;28;20020;-46
2021/07/25 17:36:03;;;;;;;;;;;26.70;82.60;;;;;;5049529;28;20036;-48
2021/07/25 17:38:29;;;;;;;2.58;1.98;;;26.50;82.40;;;;;;5066574;28;20337;-46
2021/07/25 17:40:54;;;;;;;5.95;2.20;;;26.40;84.10;;;;;;5064780;28;20070;-47
2021/07/25 17:43:20;;;;;;;6.90;2.13;;;26.40;84.00;;;;;;5066403;28;20044;-48
2021/07/25 17:45:46;;;;;;;2.30;2.08;;;26.40;85.00;;;;;;5049314;28;20028;-48
2021/07/25 17:48:12;;;;;;;2.78;1.95;;;26.40;84.40;;;;;;5068408;28;20185;-49
2021/07/25 17:50:38;;;;;;;6.97;2.35;;;26.40;85.30;;;;;;5067915;28;20135;-48
2021/07/25 17:53:04;;;;;;;3.47;1.95;;;26.50;84.40;;;;;;5050139;28;20113;-48
2021/07/25 17:55:30;;;;;;;4.00;1.98;;;26.40;85.60;;;;;;5052440;28;20059;-47
2021/07/25 17:57:55;;;;;;;5.78;1.90;;;26.40;87.00;;;;;;5068144;28;20173;-50
2021/07/25 18:00:21;;;;;;;4.28;1.92;;;26.40;86.70;;;;;;5052105;28;20095;-48
2021/07/25 18:02:47;;;;;;;3.53;2.10;;;26.40;86.80;;;;;;5050872;28;20032;-48
2021/07/25 18:05:12;;;;;;;7.03;2.38;;;26.40;86.20;;;;;;5070732;28;20032;-48
2021/07/25 18:07:39;;;;;;;4.55;2.28;;;26.30;87.70;;;;;;5065397;28;20097;-52
2021/07/25 18:10:05;;;;;;;6.13;3.22;;;26.30;87.60;;;;;;5074447;28;20496;-49
2021/07/25 18:12:31;;;;;;;6.45;2.60;;;26.30;87.50;;;;;;5091475;28;20127;-48
2021/07/25 18:14:56;;;;;;;7.05;2.75;;;26.10;88.30;;;;;;5091242;28;20544;-49
2021/07/25 18:17:22;;;;;;;4.07;2.60;;;26.10;89.00;;;;;;5089517;28;20408;-48
2021/07/25 18:19:51;;;;;;;3.28;2.20;;;26.00;89.90;;;;;;5092910;28;20096;-47
2021/07/25 18:22:17;;;;;;;3.33;2.17;;;26.00;89.70;;;;;;5091177;28;20024;-50
2021/07/25 18:24:43;;;;;;;3.53;1.83;;;26.00;89.60;;;;;;5092307;28;20483;-48
2021/07/25 18:27:09;;;;;;;2.60;2.13;;;26.00;90.20;;;;;;5091977;28;20040;-48
2021/07/25 18:29:35;;;;;;;5.78;2.63;;;26.00;90.00;;;;;;5089614;28;20112;-48
2021/07/25 18:32:02;;;;;;;3.25;1.92;;;25.90;90.50;;;;;;5086581;28;21056;-48
2021/07/25 18:34:29;;;;;;;5.30;2.55;;;25.90;90.60;;;;;;5091853;28;20122;-51
2021/07/25 18:36:57;;;;;;;9.10;2.53;;;25.80;90.40;;;;;;5088208;28;20034;-48
2021/07/25 18:39:27;;;;;;;2.75;2.10;;;25.70;90.60;;;;;;5090159;28;20091;-49
2021/07/25 18:41:56;;;;;;;4.80;2.15;;;25.70;90.30;;;;;;5086699;28;20036;-48
2021/07/25 18:44:22;;;;;;;3.63;2.63;;;25.60;90.70;;;;;;5089045;28;20031;-50
2021/07/25 18:46:48;;;;;;;2.78;2.42;;;25.70;91.00;;;;;;5089326;28;20107;-48
2021/07/25 18:49:14;;;;;;;3.03;2.50;;;25.70;91.00;;;;;;5090400;28;20057;-48
2021/07/25 18:51:39;;;;;;;4.40;2.58;;;25.70;91.10;;;;;;5089812;28;20024;-47
2021/07/25 18:54:05;;;;;;;8.32;2.72;;;25.70;91.10;;;;;;5090570;28;20066;-47
2021/07/25 18:56:31;;;;;;;5.45;2.53;;;25.80;91.30;;;;;;5089622;28;20032;-48
2021/07/25 18:58:57;;;;;;;4.72;2.50;;;25.80;91.20;;;;;;5090511;28;20032;-49
2021/07/25 19:01:23;;;;;;;3.13;2.35;;;25.80;91.20;;;;;;5088924;28;20388;-48
2021/07/25 19:03:50;;;;;;;6.70;3.05;;;25.70;91.40;;;;;;5090176;28;20055;-49
2021/07/25 19:06:17;;;;;;;3.50;2.30;;;25.60;91.70;;;;;;5089564;28;20032;-50
2021/07/25 19:08:44;;;;;;;8.32;2.72;;;25.60;90.90;;;;;;5075588;28;20056;-49
2021/07/25 19:11:18;;;;;;;3.80;2.00;;;25.50;91.40;;;;;;5069890;28;20127;-48
2021/07/25 19:13:44;;;;;;;2.38;2.13;;;25.50;91.40;;;;;;5069499;28;20124;-47
2021/07/25 19:16:11;;;;;;;7.13;2.28;;;25.50;91.70;;;;;;5070941;28;20071;-48
2021/07/25 19:18:37;;;;;;;6.53;2.33;;;25.50;92.20;;;;;;5070135;28;20384;-49
2021/07/25 19:21:07;;;;;;;8.23;3.05;;;25.50;92.20;;;;;;5070559;28;20105;-48
2021/07/25 19:23:32;;;;;;;3.97;2.53;;;25.50;92.50;;;;;;5069243;28;20031;-47
2021/07/25 19:26:09;;;;;;;3.70;2.03;;;25.30;92.00;;;;;;5070301;28;20029;-50
2021/07/25 19:28:39;;;;;;;7.80;2.60;;;25.30;92.40;;;;;;5068981;28;20068;-48
2021/07/25 19:31:06;;;;;;;4.35;2.95;;;25.30;92.00;;;;;;5070878;28;20032;-51
2021/07/25 19:33:32;;;;;;;5.40;2.90;;;25.30;92.80;;;;;;5070934;28;20520;-48
2021/07/25 19:35:59;;;;;;;3.33;2.80;;;25.20;92.10;;;;;;5069223;28;20059;-50
2021/07/25 19:38:25;;;;;;;3.45;2.47;;;25.20;91.80;;;;;;5068406;28;20036;-54
2021/07/25 19:40:50;;;;;;;4.95;2.35;;;25.20;92.60;;;;;;5070709;28;20397;-49
2021/07/25 19:43:16;;;;;;;4.05;2.85;;;25.20;93.00;;;;;;5069382;28;20073;-59
2021/07/25 19:45:42;;;;;;;3.28;2.85;;;25.10;91.80;;;;;;5069515;28;20086;-48
2021/07/25 19:48:07;;;;;;;4.10;2.80;;;24.90;91.50;;;;;;5070272;28;20047;-53
2021/07/25 19:50:33;;;;;;;7.47;3.25;;;24.90;91.90;;;;;;5070057;28;20033;-48
2021/07/25 19:52:59;;;;;;;7.97;3.03;;;24.90;92.20;;;;;;5078789;28;20025;-47
2021/07/25 19:55:25;;;;;;;4.72;3.13;;;24.90;92.30;;;;;;5068628;28;20033;-51
2021/07/25 19:57:50;;;;;;;7.25;2.75;;;24.90;92.30;;;;;;5090249;28;20032;-51
2021/07/25 20:00:16;;;;;;;5.95;2.65;;;24.90;92.60;;;;;;5089565;28;20445;-59
2021/07/25 20:02:42;;;;;;;3.78;2.40;;;25.00;92.50;;;;;;5089180;28;20020;-50
2021/07/25 20:05:08;;;;;;;4.35;3.15;;;25.00;92.10;;;;;;5089888;28;20089;-49
2021/07/25 20:07:34;;;;;;;4.53;2.33;;;25.00;92.40;;;;;;5088121;28;20063;-63
2021/07/25 20:10:00;;;;;;;4.03;2.80;;;24.60;91.30;;;;;;5090370;28;20036;-62
2021/07/25 20:12:26;;;;;;;4.50;2.47;;;24.40;91.80;;;;;;5089950;28;20027;-62
2021/07/25 20:14:53;;;;;;;4.35;2.35;;;24.10;91.60;;;;;;5089304;28;20028;-62
2021/07/25 20:17:18;;;;;;;2.75;2.20;;;24.10;92.00;;;;;;5090374;28;20417;-62
2021/07/25 20:19:44;;;;;;;3.92;2.47;;;24.00;92.00;;;;;;5091485;28;20169;-64
2021/07/25 20:22:17;;;;;;;4.93;2.55;;;24.00;91.80;;;;;;5089803;28;20069;-62
2021/07/25 20:24:43;;;;;;;2.92;2.28;;;23.90;91.90;;;;;;5089737;28;20032;-62
2021/07/25 20:27:09;;;;;;;3.58;2.55;;;23.80;91.80;;;;;;5090806;28;20054;-61
2021/07/25 20:29:36;;;;;;;3.10;2.67;;;23.90;91.70;;;;;;5071940;28;20039;-61
2021/07/25 20:32:02;;;;;;;5.95;2.60;;;23.80;91.90;;;;;;5091010;28;20024;-60
2021/07/25 20:34:28;;;;;;;3.33;2.97;;;23.90;91.70;;;;;;5090021;28;20034;-63
2021/07/25 20:36:56;;;;;;;2.22;2.03;;;24.00;91.70;;;;;;5070761;28;20111;-62
2021/07/25 20:39:22;;;;;;;3.45;2.40;;;23.90;91.60;;;;;;5085792;28;20029;-63
2021/07/25 20:41:48;;;;;;;2.22;2.03;;;23.90;91.60;;;;;;5069581;28;20067;-62
2021/07/25 20:44:14;;;;;;;7.35;2.22;;;23.70;91.70;;;;;;5069222;28;20059;-63
2021/07/25 20:46:40;;;;;;;4.18;2.88;;;23.60;91.90;;;;;;5068532;28;20534;-61
2021/07/25 20:49:06;;;;;;;3.33;1.85;;;23.60;92.20;;;;;;5068826;28;20040;-61
2021/07/25 20:51:36;;;;;;;3.05;2.33;;;23.60;92.10;;;;;;5070169;28;20070;-62
2021/07/25 20:54:02;;;;;;;2.85;2.15;;;23.70;92.10;;;;;;5069244;28;20021;-61
2021/07/25 20:56:29;;;;;;;2.45;2.00;;;23.70;92.30;;;;;;5068103;28;20028;-62
2021/07/25 20:58:55;;;;;;;5.40;2.17;;;23.70;92.30;;;;;;5070387;28;20035;-62
2021/07/25 21:01:21;;;;;;;4.80;2.40;;;23.60;92.30;;;;;;5069873;28;20029;-62
2021/07/25 21:03:47;;;;;;;5.13;2.20;;;23.60;92.30;;;;;;5070361;28;20482;-64
2021/07/25 21:06:13;;;;;;;5.35;3.10;;;23.70;92.40;;;;;;5070293;28;20029;-61
2021/07/25 21:08:39;;;;;;;3.97;3.40;;;23.70;92.70;;;;;;5052868;28;20382;-61
2021/07/25 21:11:10;;;;;;;6.97;3.30;;;23.70;93.00;;;;;;5032189;28;20059;-62
2021/07/25 21:13:37;;;;;;;6.70;3.30;;;23.70;93.90;;;;;;5031166;28;20217;-61
2021/07/25 21:16:06;;;;;;;5.05;3.22;;;23.70;94.80;;;;;;5050140;28;20082;-63
2021/07/25 21:18:32;;;;;;;8.43;3.60;;;23.70;95.70;;;;;;5049066;28;20037;-61
2021/07/25 21:20:59;;;;;;;5.85;3.22;;;23.70;96.60;;;;;;5050349;28;20029;-60
2021/07/25 21:23:24;;;;;;;5.45;3.50;;;23.60;97.10;;;;;;5049353;28;20107;-61
2021/07/25 21:25:51;;;;;;;8.90;3.50;;;23.60;97.90;;;;;;5048977;28;20025;-62
2021/07/25 21:28:17;;;;;;;6.75;4.10;;;23.60;98.30;;;;;;5049372;28;20116;-62
2021/07/25 21:30:43;;;;;;;10.57;4.10;;;23.60;98.90;;;;;;5053444;28;20104;-63
2021/07/25 21:33:08;;;;;;;7.68;4.30;;;23.60;99.20;;;;;;5054362;28;20454;-61
2021/07/25 21:35:41;;;;;;;9.55;3.20;;;23.50;99.60;;;;;;5035320;28;20060;-60
2021/07/25 21:38:07;;;;;;;4.43;3.97;;;23.50;99.90;;;;;;5053918;28;20196;-60
2021/07/25 21:40:32;;;;;;;5.43;3.72;;;23.50;99.90;;;;;;5035221;28;20196;-60
2021/07/25 21:42:58;;;;;;;11.35;4.75;;;23.40;99.90;;;;;;5054019;28;20025;-61
2021/07/25 21:45:24;;;;;;;6.88;4.10;;;23.30;99.90;;;;;;5034962;28;20029;-59
2021/07/25 21:47:49;;;;;;;7.28;4.25;;;23.20;99.90;;;;;;5053151;28;20037;-59
2021/07/25 21:50:16;;;;;;;8.68;4.47;;;23.20;99.90;;;;;;5053592;28;20100;-60
2021/07/25 21:52:42;;;;;;;7.60;4.18;;;23.10;99.90;;;;;;5035501;28;20058;-61
2021/07/25 21:55:08;;;;;;;8.50;4.03;;;22.90;99.90;;;;;;5053305;28;20025;-61
2021/07/25 21:57:34;;;;;;;5.95;4.68;;;22.90;99.90;;;;;;5053095;28;20037;-60
2021/07/25 22:00:01;;;;;;;7.38;4.35;;;22.90;99.90;;;;;;5053178;28;20351;-61
2021/07/25 22:02:32;;;;;;;12.30;4.50;;;22.90;99.90;;;;;;5052750;28;20039;-61
2021/07/25 22:04:58;;;;;;;6.57;4.40;;;22.90;99.90;;;;;;5035251;28;20120;-61
2021/07/25 22:07:24;;;;;;;7.93;4.10;;;22.90;99.90;;;;;;5052274;28;20136;-61
2021/07/25 22:09:50;;;;;;;5.30;3.28;;;22.80;99.90;;;;;;5041819;28;20040;-61
2021/07/25 22:12:17;;;;;;;6.85;4.05;;;22.90;99.90;;;;;;5052833;28;20076;-68
2021/07/25 22:14:43;;;;;;;6.50;3.85;;;22.80;99.90;;;;;;5071638;28;20028;-63
2021/07/25 22:17:09;;;;;;;6.55;3.85;;;22.80;99.90;;;;;;5058543;28;20070;-58
2021/07/25 22:19:35;;;;;;;5.93;4.60;;;22.70;99.90;;;;;;5067199;28;20024;-60
2021/07/25 22:22:01;;;;;;;7.10;4.45;;;22.80;99.90;;;;;;5053398;28;20138;-65
2021/07/25 22:24:27;;;;;;;6.18;4.45;;;22.70;99.90;;;;;;5051712;28;20048;-66
2021/07/25 22:26:53;;;;;;;5.47;3.72;;;22.60;99.90;;;;;;5054289;28;20025;-65
2021/07/25 22:29:19;;;;;;;12.65;4.50;;;22.60;99.90;;;;;;5072005;28;20051;-69
2021/07/25 22:31:44;;;;;;;11.70;4.28;;;22.60;99.90;;;;;;5072217;28;20462;-64
2021/07/25 22:34:10;;;;;;;7.63;3.70;;;22.60;99.90;;;;;;5053085;28;20027;-65
2021/07/25 22:36:36;;;;;;;8.18;4.22;;;22.60;99.90;;;;;;5069438;28;20480;-66
2021/07/25 22:39:01;;;;;;;7.85;4.57;;;22.60;99.90;;;;;;5071079;28;20036;-64
2021/07/25 22:41:29;;;;;;;7.57;4.20;;;22.60;99.90;;;;;;5069928;28;20029;-64
2021/07/25 22:43:55;;;;;;;5.75;3.53;;;22.50;99.90;;;;;;5053498;28;20079;-66
2021/07/25 22:46:20;;;;;;;5.82;4.13;;;22.60;99.90;;;;;;5070352;28;20036;-68
2021/07/25 22:48:46;;;;;;;7.28;3.90;;;22.50;99.90;;;;;;5071788;28;20037;-66
2021/07/25 22:51:16;;;;;;;7.70;4.50;;;22.40;99.90;;;;;;5070539;28;20055;-65
2021/07/25 22:53:41;;;;;;;6.28;4.05;;;22.30;99.90;;;;;;5052298;28;20508;-66
2021/07/25 22:56:08;;;;;;;8.13;4.53;;;22.40;99.90;;;;;;5052376;28;20032;-67
2021/07/25 22:58:33;;;;;;;9.00;4.32;;;22.40;99.90;;;;;;5068998;28;20041;-64
2021/07/25 23:00:59;;;;;;;8.40;4.50;;;22.40;99.90;;;;;;5070965;28;20028;-65
2021/07/25 23:03:25;;;;;;;11.65;3.88;;;22.40;99.90;;;;;;5070452;28;20031;-65
2021/07/25 23:05:51;;;;;;;6.90;4.07;;;22.30;99.90;;;;;;5052763;28;20373;-64
2021/07/25 23:08:17;;;;;;;8.10;4.40;;;22.10;99.90;;;;;;5066728;28;20542;-67
2021/07/25 23:10:43;;;;;;;6.05;4.07;;;22.10;99.90;;;;;;5053242;28;20021;-65
2021/07/25 23:13:08;;;;;;;5.40;4.32;;;22.10;99.90;;;;;;5070910;28;20051;-65
2021/07/25 23:15:34;;;;;;;7.90;4.05;;;22.10;99.90;;;;;;5052450;28;20437;-65
2021/07/25 23:18:00;;;;;;;5.40;4.25;;;22.10;99.90;;;;;;5052283;28;20043;-64
2021/07/25 23:20:26;;;;;;;4.90;4.00;;;22.20;99.90;;;;;;5051410;28;20029;-65
2021/07/25 23:22:51;;;;;;;6.00;4.50;;;22.10;99.90;;;;;;5069485;28;20535;-64
2021/07/25 23:25:18;;;;;;;9.57;5.00;;;22.20;99.90;;;;;;5051085;28;20024;-67
2021/07/25 23:27:43;;;;;;;6.03;4.47;;;22.10;99.90;;;;;;5068826;28;20047;-64
2021/07/25 23:30:10;;;;;;;9.75;4.32;;;22.00;99.90;;;;;;5068186;28;20342;-65
2021/07/25 23:32:36;;;;;;;6.20;3.80;;;21.80;99.90;;;;;;5050537;28;20404;-66
2021/07/25 23:35:01;;;;;;;5.63;4.47;;;21.80;99.90;;;;;;5051999;28;20025;-65
2021/07/25 23:37:27;;;;;;;5.22;4.43;;;21.80;99.90;;;;;;5051648;28;20525;-65
2021/07/25 23:39:52;;;;;;;7.85;4.32;;;21.90;99.90;;;;;;5069915;28;20048;-66
2021/07/25 23:42:18;;;;;;;7.22;4.57;;;21.80;99.90;;;;;;5052352;28;20063;-65
2021/07/25 23:44:47;;;;;;;9.40;5.55;;;21.70;99.90;;;;;;5053957;28;20355;-65
2021/07/25 23:47:12;;;;;;;5.70;4.22;;;21.60;99.90;;;;;;5053488;28;20458;-65
2021/07/25 23:49:38;;;;;;;8.10;4.47;;;21.50;99.90;;;;;;5070470;28;20056;-65
2021/07/25 23:52:04;;;;;;;5.10;4.38;;;21.50;99.90;;;;;;5052571;28;20067;-65
2021/07/25 23:54:30;;;;;;;6.47;4.63;;;21.50;99.90;;;;;;5052624;28;20367;-64
2021/07/25 23:56:56;;;;;;;5.30;4.32;;;21.60;99.90;;;;;;5053244;28;20097;-64
2021/07/25 23:59:21;;;;;;;12.90;5.03;;;21.60;99.90;;;;;;5052490;28;20025;-65
